KBAD/BAD METAR and TAF weather

Enter ICAO airport designator
Station Type Date Time Source
KBAD METAR 2019/12/11 16:56 UTC NOAA

KBAD 111656Z AUTO 05005KT 10SM CLR 08/M01 A3058 RMK AO2 SLP359 T00751010


Station Type Date Time Source
KBAD Decoded METAR 2019/12/11 16:56 UTC NOAA

Barksdale Air Force Base, LA, United States (KBAD) 32-30N 093-40W
Dec 11, 2019 - 11:56 AM EST / 2019.12.11 1656 UTC
Wind: from the NE (050 degrees) at 6 MPH (5 KT):0
Visibility: 10 mile(s):0
Sky conditions: clear
Temperature: 45.5 F (7.5 C)
Dew Point: 30.2 F (-1.0 C)
Relative Humidity: 54%
Pressure (altimeter): 30.58 in. Hg (1035 hPa)
ob: KBAD 111656Z AUTO 05005KT 10SM CLR 08/M01 A3058 RMK AO2 SLP359 T00751010
cycle: 17

Station Type Date Time Source
KBAD TAF 2019/12/11 10:16 UTC NOAA

TAF KBAD 111003Z 1110/1216 05008KT 9999 SKC QNH3042INS TX10/1122Z TNM02/1113Z

Example: see airport list